Time;durP1;ratioP1;P1;durP2;ratioP2;P2;SDS_P1;SDS_P2;PMS_P1;PMS_P2;Temp;Humidity;BMP_temperature;BMP_pressure;BME280_temperature;BME280_humidity;BME280_pressure;Samples;Min_cycle;Max_cycle;Signal;HPM_P1;HPM_P2
2023/10/15 07:01:26;;;;;;;1.17;0.80;;;8.60;99.90;10.40;101749.00;;;;6169389;22;1438449;-67
2023/10/15 07:03:56;;;;;;;0.80;0.40;;;8.40;99.90;11.10;101772.00;;;;6244858;23;20150;-67
2023/10/15 07:06:44;;;;;;;0.30;0.30;;;8.40;99.90;11.20;101778.00;;;;6221197;23;20154;-67
2023/10/15 07:09:53;;;;;;;1.13;1.13;;;8.50;99.90;12.20;101745.00;;;;6220441;23;20162;-67
2023/10/15 07:12:22;;;;;;;0.30;0.30;;;8.80;99.90;13.00;101798.00;;;;6220513;23;20204;-68
2023/10/15 07:14:48;;;;;;;0.40;0.40;;;9.30;99.90;13.00;101817.00;;;;6246051;23;20138;-68
2023/10/15 07:17:17;;;;;;;0.30;0.30;;;9.60;99.90;12.40;101812.00;;;;6220782;23;20541;-67
2023/10/15 07:19:44;;;;;;;2.50;1.07;;;9.30;99.90;12.70;101818.00;;;;6246767;22;20188;-67
2023/10/15 07:22:53;;;;;;;3.50;0.83;;;9.40;99.90;12.60;101779.00;;;;6246989;22;20151;-67
2023/10/15 07:25:21;;;;;;;0.20;0.20;;;9.30;99.90;12.40;101831.00;;;;6245314;23;20232;-66
2023/10/15 07:27:49;;;;;;;0.63;0.63;;;9.60;99.90;13.10;101824.00;;;;6220556;23;20579;-66
2023/10/15 07:30:19;;;;;;;0.20;0.20;;;9.60;99.90;13.60;101832.00;;;;6220366;23;20167;-66
2023/10/15 07:32:59;;;;;;;0.30;0.30;;;9.90;99.90;14.40;101856.00;;;;6220710;23;20183;-67
2023/10/15 07:35:46;;;;;;;0.43;0.43;;;10.50;99.90;14.70;101858.00;;;;6220600;23;20233;-68
2023/10/15 07:38:24;;;;;;;0.50;0.50;;;10.90;99.90;13.30;101845.00;;;;6245509;23;20192;-68
2023/10/15 07:40:57;;;;;;;2.20;1.73;;;10.60;99.90;12.40;101826.00;;;;6245966;23;20222;-67
2023/10/15 07:43:28;;;;;;;0.63;0.63;;;10.00;99.90;12.50;101828.00;;;;6245782;23;20467;-68
2023/10/15 07:45:57;;;;;;;0.20;0.20;;;9.60;99.90;13.10;101800.00;;;;6244992;23;20147;-68
2023/10/15 07:48:48;;;;;;;0.20;0.20;;;9.90;99.90;13.00;101843.00;;;;6245930;23;20197;-68
2023/10/15 07:51:42;;;;;;;0.20;0.20;;;9.90;99.90;15.40;101852.00;;;;6246143;23;20202;-67
2023/10/15 07:54:45;;;;;;;0.20;0.20;;;11.10;99.90;15.00;101881.00;;;;6219882;23;20226;-68
2023/10/15 07:57:15;;;;;;;7.77;7.37;;;12.20;99.90;14.20;101865.00;;;;6239799;23;20167;-68
2023/10/15 08:00:16;;;;;;;0.20;0.20;;;11.40;99.90;14.20;101869.00;;;;6245454;23;20563;-68
2023/10/15 08:02:46;;;;;;;0.20;0.20;;;11.10;99.90;15.10;101891.00;;;;6220398;23;20161;-68
2023/10/15 08:06:01;;;;;;;0.20;0.20;;;11.50;99.90;16.60;101917.00;;;;6220127;23;20213;-68
2023/10/15 08:09:22;;;;;;;0.20;0.20;;;12.20;99.90;17.10;101939.00;;;;6230538;23;20523;-68
2023/10/15 08:12:34;;;;;;;0.20;0.20;;;13.00;99.90;17.90;101976.00;;;;6245770;23;20154;-68
2023/10/15 08:15:55;;;;;;;0.20;0.20;;;13.60;99.90;18.00;102003.00;;;;6246970;22;20159;-68
2023/10/15 08:18:39;;;;;;;0.20;0.20;;;13.70;99.90;17.70;102013.00;;;;6220290;23;20242;-68
2023/10/15 08:21:49;;;;;;;0.20;0.20;;;13.60;99.90;17.50;102002.00;;;;6220105;23;20155;-67
2023/10/15 08:28:19;;;;;;;0.30;0.30;;;13.40;99.90;16.90;101995.00;;;;6237459;23;20157;-68
2023/10/15 08:31:07;;;;;;;0.20;0.20;;;12.90;99.90;17.10;101952.00;;;;6245022;23;20155;-68
2023/10/15 08:34:12;;;;;;;0.20;0.20;;;12.80;99.90;15.90;101978.00;;;;6245322;23;20174;-68
2023/10/15 08:36:45;;;;;;;0.50;0.50;;;12.50;99.90;15.60;101941.00;;;;6244362;23;20212;-68
2023/10/15 08:39:11;;;;;;;0.30;0.30;;;12.10;99.90;14.90;101938.00;;;;6220120;23;20153;-67
2023/10/15 08:41:45;;;;;;;0.83;0.83;;;11.70;99.90;14.00;101899.00;;;;6244822;23;20176;-68
2023/10/15 08:44:29;;;;;;;1.23;0.57;;;11.30;99.90;14.20;101919.00;;;;6245902;22;20136;-68
2023/10/15 08:50:37;;;;;;;0.20;0.20;;;11.10;99.90;15.80;101958.00;;;;6107266;23;20616;-68
2023/10/15 08:53:08;;;;;;;0.30;0.30;;;11.80;99.90;16.40;101936.00;;;;6129078;23;20201;-68
2023/10/15 08:55:59;;;;;;;0.30;0.30;;;12.20;99.90;16.40;101970.00;;;;6232746;23;20210;-68
2023/10/15 08:59:11;;;;;;;0.30;0.30;;;12.40;99.90;16.60;101989.00;;;;6244329;23;20573;-68
2023/10/15 09:01:40;;;;;;;0.20;0.20;;;12.50;99.90;16.10;101989.00;;;;6216602;23;20280;-68
2023/10/15 09:04:45;;;;;;;0.30;0.30;;;12.40;99.90;16.00;101992.00;;;;6244660;23;20228;-64
2023/10/15 09:07:14;;;;;;;0.20;0.20;;;12.50;99.90;16.00;101993.00;;;;6245476;22;20163;-68
2023/10/15 09:09:42;;;;;;;0.20;0.20;;;12.40;99.90;16.00;101994.00;;;;6244701;23;20155;-69
2023/10/15 09:12:55;;;;;;;0.20;0.20;;;12.40;99.90;16.50;102001.00;;;;6245949;22;20207;-78
2023/10/15 09:15:28;;;;;;;0.30;0.30;;;12.60;99.90;16.80;102017.00;;;;6244924;23;20642;-68
2023/10/15 09:19:06;;;;;;;0.30;0.30;;;12.80;99.90;16.90;102017.00;;;;6244496;23;20153;-68
2023/10/15 09:22:08;;;;;;;0.30;0.30;;;12.90;99.90;17.10;102027.00;;;;6220999;23;20168;-71
2023/10/15 09:24:57;;;;;;;0.30;0.30;;;13.00;99.90;16.50;102012.00;;;;6246081;22;20506;-69
2023/10/15 09:27:46;;;;;;;0.30;0.30;;;12.90;99.90;16.80;102016.00;;;;6244688;23;20187;-68
2023/10/15 09:30:38;;;;;;;0.30;0.30;;;12.90;99.90;17.40;102019.00;;;;6218110;23;20169;-69
2023/10/15 09:34:02;;;;;;;0.30;0.30;;;13.10;99.90;16.80;102021.00;;;;6244633;23;20600;-68
2023/10/15 09:36:58;;;;;;;0.20;0.20;;;13.00;99.90;17.50;102006.00;;;;6244917;23;20558;-63
2023/10/15 09:40:01;;;;;;;3.80;0.87;;;13.30;99.90;17.20;102055.00;;;;6245131;23;20457;-69
2023/10/15 09:43:04;;;;;;;0.20;0.20;;;13.50;99.90;18.10;102055.00;;;;6245031;23;20650;-69
2023/10/15 09:46:09;;;;;;;0.30;0.30;;;13.80;99.90;18.70;102067.00;;;;6244521;23;20584;-69
2023/10/15 09:49:20;;;;;;;0.20;0.20;;;14.30;99.90;18.20;102087.00;;;;6244375;23;20150;-68
2023/10/15 09:52:36;;;;;;;0.20;0.20;;;14.40;99.90;18.10;102079.00;;;;6244567;23;20153;-67
2023/10/15 09:55:40;;;;;;;0.20;0.20;;;14.10;99.90;17.60;102076.00;;;;6220873;23;20185;-69
2023/10/15 09:58:26;;;;;;;0.20;0.20;;;14.00;99.90;17.80;102077.00;;;;6246249;22;20160;-69
2023/10/15 10:01:36;;;;;;;0.30;0.30;;;13.80;99.90;16.50;102088.00;;;;6242623;23;20188;-69
2023/10/15 10:05:49;;;;;;;0.30;0.30;;;14.00;99.90;15.40;102039.00;;;;6215133;23;20161;-68
2023/10/15 10:08:56;;;;;;;0.20;0.20;;;12.90;99.90;15.80;102040.00;;;;6064656;23;20229;-68
2023/10/15 10:11:49;;;;;;;0.10;0.10;;;13.00;99.90;15.80;102001.00;;;;6041378;23;20181;-69
2023/10/15 10:15:02;;;;;;;0.77;0.67;;;13.00;99.90;16.90;102038.00;;;;6066028;23;20236;-69
2023/10/15 10:17:52;;;;;;;0.20;0.20;;;13.10;99.90;15.80;102034.00;;;;6065322;23;20171;-69
2023/10/15 10:20:56;;;;;;;0.20;0.20;;;12.80;99.90;17.00;102060.00;;;;6065336;23;20255;-69
2023/10/15 10:34:03;;;;;;;0.10;0.10;;;12.60;99.90;16.20;102051.00;;;;5100871;27;1470889;-70
2023/10/15 10:36:38;;;;;;;0.20;0.20;;;13.00;99.90;16.90;102113.00;;;;5110746;28;20282;-67
2023/10/15 10:39:07;;;;;;;0.20;0.20;;;13.40;99.90;17.10;102137.00;;;;5128049;27;20541;-67
2023/10/15 10:41:43;;;;;;;0.20;0.20;;;13.40;99.90;16.40;102171.00;;;;5124083;28;20191;-69
2023/10/15 10:44:24;;;;;;;0.30;0.30;;;13.20;99.90;15.80;102199.00;;;;5113011;28;20185;-69
2023/10/15 10:46:53;;;;;;;0.20;0.20;;;12.70;99.90;14.90;102168.00;;;;5122387;28;20611;-69
2023/10/15 10:49:40;;;;;;;0.20;0.20;;;12.30;99.90;14.10;102119.00;;;;5116842;27;20180;-70
2023/10/15 10:52:15;;;;;;;5.57;0.97;;;11.70;99.90;14.60;102099.00;;;;5103373;28;20199;-69
2023/10/15 10:54:42;;;;;;;0.20;0.20;;;11.60;99.90;14.60;102084.00;;;;5107061;28;20695;-69
2023/10/15 10:57:09;;;;;;;2.60;1.43;;;11.50;99.90;14.50;102099.00;;;;5112932;28;20176;-70
2023/10/15 10:59:40;;;;;;;0.47;0.47;;;11.60;99.90;15.60;102101.00;;;;5125045;28;20188;-69
2023/10/15 11:02:36;;;;;;;0.20;0.20;;;11.80;99.90;15.90;102111.00;;;;5107076;28;20231;-70
2023/10/15 11:05:41;;;;;;;0.47;0.47;;;12.10;99.90;15.70;102112.00;;;;5109135;28;20620;-73
2023/10/15 11:08:57;;;;;;;0.20;0.20;;;12.30;99.90;16.60;102081.00;;;;5098053;28;20230;-69
2023/10/15 11:11:26;;;;;;;0.20;0.20;;;12.50;99.90;17.20;102121.00;;;;5111524;28;20187;-68
2023/10/15 11:14:41;;;;;;;0.20;0.20;;;13.00;99.90;17.40;102095.00;;;;5110894;28;20184;-67
2023/10/15 11:17:36;;;;;;;0.20;0.20;;;13.40;99.90;17.30;102143.00;;;;5109517;28;20185;-67
2023/10/15 11:20:55;;;;;;;0.20;0.20;;;13.80;99.90;17.90;102133.00;;;;5098827;28;20211;-68
2023/10/15 11:23:45;;;;;;;0.20;0.20;;;13.90;99.90;18.40;102141.00;;;;5108317;28;20179;-67
2023/10/15 11:27:11;;;;;;;0.20;0.20;;;14.30;99.90;18.50;102165.00;;;;5100752;28;20278;-68
2023/10/15 11:30:13;;;;;;;0.20;0.20;;;14.40;99.90;18.10;102178.00;;;;5115832;27;20264;-68
2023/10/15 11:32:41;;;;;;;0.20;0.20;;;14.30;99.90;18.30;102191.00;;;;5120951;28;20221;-68
2023/10/15 11:35:17;;;;;;;0.20;0.20;;;14.30;99.90;18.60;102189.00;;;;5110909;28;20198;-68
2023/10/15 11:37:50;;;;;;;0.20;0.20;;;14.30;99.90;15.80;102203.00;;;;5113751;27;20186;-68
2023/10/15 11:40:45;;;;;;;0.20;0.20;;;13.40;99.90;17.00;102153.00;;;;5124863;28;20190;-69
2023/10/15 11:43:26;;;;;;;0.20;0.20;;;13.30;99.90;16.90;102139.00;;;;5108441;28;20230;-68
2023/10/15 11:46:23;;;;;;;0.10;0.10;;;13.20;99.90;15.80;102106.00;;;;5098930;28;20669;-68
2023/10/15 11:49:11;;;;;;;0.20;0.20;;;12.90;99.90;14.50;102076.00;;;;5080925;28;20193;-68
2023/10/15 11:51:45;;;;;;;0.20;0.20;;;12.30;99.90;16.10;102086.00;;;;5076534;28;20208;-68
2023/10/15 11:54:17;;;;;;;0.30;0.30;;;12.50;99.90;15.10;102050.00;;;;5101818;28;20581;-67
2023/10/15 11:56:47;;;;;;;0.97;0.70;;;12.40;99.90;14.50;102071.00;;;;5105656;28;20214;-68
2023/10/15 11:59:13;;;;;;;0.30;0.30;;;12.00;99.90;15.10;102070.00;;;;5106541;28;20285;-68
2023/10/15 12:01:40;;;;;;;0.40;0.40;;;12.00;99.90;14.80;102069.00;;;;5099625;28;20186;-67
2023/10/15 12:04:07;;;;;;;0.20;0.20;;;11.90;99.90;14.20;102084.00;;;;5089358;28;20264;-69
2023/10/15 12:06:36;;;;;;;0.20;0.20;;;11.80;99.90;14.70;102066.00;;;;5107355;28;20237;-67
2023/10/15 12:09:02;;;;;;;0.20;0.20;;;11.80;99.90;16.10;102089.00;;;;5103073;28;20640;-68
2023/10/15 12:11:38;;;;;;;0.33;0.33;;;12.40;99.90;14.80;102065.00;;;;5108263;28;20197;-70
2023/10/15 12:14:07;;;;;;;0.83;0.63;;;12.40;99.90;15.20;102046.00;;;;5097512;28;21013;-69
2023/10/15 12:16:39;;;;;;;0.83;0.67;;;12.50;99.90;14.80;102073.00;;;;5115343;27;20267;-67
2023/10/15 12:19:09;;;;;;;0.20;0.20;;;12.20;99.90;14.90;102087.00;;;;5095602;28;20214;-68
2023/10/15 12:21:39;;;;;;;0.93;0.87;;;12.20;99.90;15.10;102092.00;;;;5093780;28;20535;-68
2023/10/15 12:24:08;;;;;;;0.20;0.20;;;12.40;99.90;16.20;102064.00;;;;5100342;28;20186;-68
2023/10/15 12:26:35;;;;;;;0.20;0.20;;;12.80;99.90;17.30;102104.00;;;;5094374;28;20537;-68
2023/10/15 12:29:05;;;;;;;0.20;0.20;;;13.50;99.90;16.50;102115.00;;;;5097646;28;20187;-68
2023/10/15 12:31:43;;;;;;;3.63;0.47;;;14.00;99.90;15.40;102080.00;;;;5094791;28;20586;-68
2023/10/15 12:34:17;;;;;;;0.10;0.10;;;13.40;99.90;16.50;102096.00;;;;5103918;28;20188;-67
2023/10/15 12:36:59;;;;;;;0.67;0.50;;;13.30;99.90;16.50;102109.00;;;;5105167;28;20190;-67
2023/10/15 12:39:28;;;;;;;0.90;0.40;;;13.70;99.90;15.20;102111.00;;;;5097117;28;20179;-69
2023/10/15 12:41:55;;;;;;;0.10;0.10;;;13.50;99.90;16.70;102090.00;;;;5083700;28;20296;-70
2023/10/15 12:44:22;;;;;;;1.17;0.63;;;13.70;99.90;16.20;102126.00;;;;5102725;28;20187;-68
2023/10/15 12:46:54;;;;;;;0.10;0.10;;;13.90;99.90;16.60;102135.00;;;;5113416;28;20191;-69
2023/10/15 12:49:31;;;;;;;0.47;0.20;;;13.80;99.90;17.20;102111.00;;;;5093163;28;20602;-69
2023/10/15 12:51:58;;;;;;;0.30;0.30;;;13.80;99.90;14.70;102115.00;;;;5099305;28;20208;-70
2023/10/15 12:54:24;;;;;;;0.20;0.20;;;13.20;99.90;13.50;102084.00;;;;5078586;28;20648;-70
2023/10/15 12:56:56;;;;;;;0.20;0.20;;;11.80;99.90;13.10;102102.00;;;;5094304;28;20184;-64
2023/10/15 12:59:30;;;;;;;0.20;0.20;;;11.00;99.90;14.00;102107.00;;;;5093855;28;20188;-67
2023/10/15 13:02:20;;;;;;;0.30;0.30;;;10.90;99.90;14.80;102095.00;;;;5092119;28;20642;-68
2023/10/15 13:05:09;;;;;;;0.30;0.30;;;11.10;99.90;15.30;102119.00;;;;5079711;28;20253;-67
2023/10/15 13:07:47;;;;;;;0.30;0.30;;;11.30;99.90;15.40;102110.00;;;;5104485;28;20274;-67
2023/10/15 13:10:13;;;;;;;0.40;0.40;;;11.50;99.90;15.30;102114.00;;;;5085029;28;20187;-67
2023/10/15 13:12:47;;;;;;;0.40;0.40;;;11.40;99.90;15.10;102102.00;;;;5109198;28;20215;-67
2023/10/15 13:15:21;;;;;;;0.40;0.40;;;11.40;99.90;15.30;102099.00;;;;5109752;28;20186;-67
2023/10/15 13:17:56;;;;;;;0.50;0.50;;;11.50;99.90;15.30;102105.00;;;;5096493;28;20435;-67
2023/10/15 13:20:28;;;;;;;0.40;0.40;;;11.50;99.90;15.60;102110.00;;;;5099719;28;20641;-67
2023/10/15 13:23:05;;;;;;;0.40;0.40;;;11.80;99.90;16.30;102115.00;;;;5097505;28;20184;-65
2023/10/15 13:25:57;;;;;;;0.40;0.40;;;12.00;99.90;15.80;102112.00;;;;5094771;28;20190;-66
2023/10/15 13:28:32;;;;;;;0.30;0.30;;;11.90;99.90;15.50;102117.00;;;;5085882;28;20203;-67
2023/10/15 13:31:05;;;;;;;0.40;0.40;;;11.90;99.90;16.30;102134.00;;;;5103715;28;20191;-65
2023/10/15 13:34:27;;;;;;;0.40;0.40;;;12.30;99.90;16.50;102121.00;;;;5085910;28;20192;-65
2023/10/15 13:38:10;;;;;;;0.30;0.30;;;12.40;99.90;15.90;102140.00;;;;5109914;28;20583;-64
2023/10/15 13:41:31;;;;;;;0.40;0.40;;;12.40;99.90;16.80;102131.00;;;;5100420;28;20207;-66
2023/10/15 13:44:47;;;;;;;0.30;0.30;;;12.70;99.90;16.60;102139.00;;;;5113886;28;20180;-66
2023/10/15 13:47:50;;;;;;;0.20;0.20;;;12.70;99.90;16.00;102106.00;;;;5100240;28;20176;-66
2023/10/15 13:50:51;;;;;;;0.30;0.30;;;12.30;99.90;15.20;102099.00;;;;5110734;28;20191;-66
2023/10/15 13:54:12;;;;;;;0.80;0.80;;;12.20;99.90;15.40;102136.00;;;;5092769;28;20219;-66
2023/10/15 13:57:19;;;;;;;0.30;0.30;;;12.20;99.90;15.60;102141.00;;;;5086024;28;20184;-67
2023/10/15 14:00:31;;;;;;;0.40;0.40;;;12.30;99.90;15.50;102149.00;;;;5107924;28;20194;-67
2023/10/15 14:04:02;;;;;;;0.30;0.30;;;12.20;99.90;16.10;102125.00;;;;5093063;28;20249;-67
2023/10/15 14:07:24;;;;;;;0.30;0.30;;;12.20;99.90;15.40;102129.00;;;;5100402;28;20193;-65
2023/10/15 14:10:57;;;;;;;0.30;0.30;;;12.20;99.90;16.00;102141.00;;;;5101582;28;20193;-66
2023/10/15 14:18:05;;;;;;;0.30;0.30;;;12.40;99.90;16.40;102127.00;;;;5106352;28;20201;-67
2023/10/15 14:21:19;;;;;;;0.30;0.30;;;12.50;99.90;16.70;102135.00;;;;5106915;28;20196;-66
2023/10/15 14:25:00;;;;;;;0.30;0.30;;;12.80;99.90;16.40;102125.00;;;;5106624;28;20200;-66
2023/10/15 14:28:22;;;;;;;0.30;0.30;;;12.70;99.90;16.50;102100.00;;;;5109027;28;20272;-67
2023/10/15 14:31:28;;;;;;;0.30;0.30;;;12.80;99.90;16.90;102143.00;;;;5103634;28;20203;-67
2023/10/15 14:34:58;;;;;;;0.20;0.20;;;13.00;99.90;16.40;102145.00;;;;5106496;28;20189;-67
2023/10/15 14:38:08;;;;;;;0.20;0.20;;;13.00;99.90;16.80;102158.00;;;;5093432;28;20724;-67
2023/10/15 14:41:15;;;;;;;0.30;0.30;;;13.00;99.90;17.00;102145.00;;;;5104986;28;20173;-67
2023/10/15 14:44:26;;;;;;;0.30;0.30;;;13.20;99.90;16.90;102155.00;;;;5091396;28;20193;-67
2023/10/15 14:47:35;;;;;;;0.20;0.20;;;13.10;99.90;16.90;102152.00;;;;5110682;28;20180;-67
2023/10/15 14:50:39;;;;;;;0.20;0.20;;;13.20;99.90;15.60;102138.00;;;;5098881;28;20180;-67
2023/10/15 14:53:45;;;;;;;0.30;0.30;;;12.90;99.90;16.90;102146.00;;;;5108286;28;20545;-66
2023/10/15 14:56:49;;;;;;;0.30;0.30;;;12.80;99.90;16.20;102142.00;;;;5091478;28;20265;-66
2023/10/15 14:59:52;;;;;;;0.30;0.30;;;12.90;99.90;16.60;102140.00;;;;5101453;28;20180;-66
2023/10/15 15:02:59;;;;;;;0.23;0.23;;;12.80;99.90;16.40;102135.00;;;;5108809;28;20189;-66
2023/10/15 15:06:11;;;;;;;0.30;0.30;;;12.90;99.90;16.60;102150.00;;;;5086821;28;20185;-66
2023/10/15 15:09:11;;;;;;;0.50;0.50;;;12.90;99.90;16.50;102137.00;;;;5076770;28;20202;-66
2023/10/15 15:12:15;;;;;;;0.30;0.30;;;12.80;99.90;16.80;102143.00;;;;5107539;28;20197;-66
2023/10/15 15:15:19;;;;;;;0.30;0.30;;;12.90;99.90;16.90;102142.00;;;;5095245;28;20279;-66
2023/10/15 15:18:16;;;;;;;0.30;0.30;;;12.90;99.90;17.10;102148.00;;;;5091529;28;20279;-66
2023/10/15 15:21:29;;;;;;;0.30;0.30;;;13.00;99.90;17.10;102140.00;;;;5097574;28;20185;-66
2023/10/15 15:25:04;;;;;;;0.20;0.20;;;13.10;99.90;17.10;102158.00;;;;5098878;28;20244;-66
2023/10/15 15:28:33;;;;;;;0.30;0.30;;;13.10;99.90;17.30;102167.00;;;;5071320;28;20721;-66
2023/10/15 15:31:44;;;;;;;0.30;0.30;;;13.20;99.90;17.00;102139.00;;;;5099890;28;20292;-66
2023/10/15 15:34:50;;;;;;;0.30;0.30;;;13.10;99.90;17.20;102153.00;;;;5093691;28;20642;-66
2023/10/15 15:37:42;;;;;;;0.30;0.30;;;13.10;99.90;17.00;102166.00;;;;5102306;28;20203;-66
2023/10/15 15:40:38;;;;;;;0.20;0.20;;;13.20;99.90;16.90;102159.00;;;;5124708;27;20275;-66
2023/10/15 15:43:54;;;;;;;0.27;0.27;;;13.10;99.90;17.00;102165.00;;;;5115352;27;20273;-66
2023/10/15 15:47:00;;;;;;;0.30;0.30;;;13.00;99.90;17.40;102169.00;;;;5092968;28;20567;-66
2023/10/15 15:50:11;;;;;;;0.30;0.30;;;13.30;99.90;16.80;102168.00;;;;5099159;28;20588;-66
2023/10/15 15:53:05;;;;;;;0.40;0.40;;;13.30;99.90;17.00;102163.00;;;;5092300;28;20278;-66
2023/10/15 15:56:02;;;;;;;0.63;0.63;;;13.20;99.90;16.80;102193.00;;;;5095193;28;20225;-66
2023/10/15 15:59:11;;;;;;;0.93;0.93;;;13.30;99.90;16.90;102182.00;;;;5113400;28;20200;-66
2023/10/15 16:01:45;;;;;;;0.60;0.60;;;13.20;99.90;17.10;102189.00;;;;5125947;27;20274;-67
2023/10/15 16:05:07;;;;;;;0.30;0.30;;;13.30;99.90;17.30;102192.00;;;;5109160;28;20603;-67
2023/10/15 16:07:58;;;;;;;11.57;0.87;;;13.30;99.90;15.60;102199.00;;;;5117083;27;20190;-67
2023/10/15 16:10:56;;;;;;;0.20;0.20;;;13.10;99.90;16.70;102143.00;;;;5105271;28;20192;-67
2023/10/15 16:13:44;;;;;;;0.20;0.20;;;12.90;99.90;16.60;102188.00;;;;5104026;28;20211;-67
2023/10/15 16:16:10;;;;;;;0.27;0.27;;;12.90;99.90;15.50;102182.00;;;;5108512;28;20590;-67
2023/10/15 16:18:36;;;;;;;1.70;1.03;;;12.60;99.90;14.20;102170.00;;;;5084356;28;20182;-66
2023/10/15 16:21:06;;;;;;;0.20;0.20;;;12.10;99.90;15.10;102172.00;;;;5077568;28;20178;-66
2023/10/15 16:23:34;;;;;;;0.20;0.20;;;12.00;99.90;16.00;102181.00;;;;5099186;28;20638;-67
2023/10/15 16:26:38;;;;;;;0.20;0.20;;;12.10;99.90;16.30;102196.00;;;;5111207;28;20188;-61
2023/10/15 16:29:29;;;;;;;0.20;0.20;;;12.30;99.90;17.00;102179.00;;;;5097501;28;20192;-67
2023/10/15 16:32:39;;;;;;;1.23;1.23;;;12.60;99.90;16.90;102187.00;;;;5097008;28;20223;-67
2023/10/15 16:35:31;;;;;;;0.20;0.20;;;12.70;99.90;16.60;102212.00;;;;5105818;28;20173;-67
2023/10/15 16:38:45;;;;;;;0.43;0.43;;;12.60;99.90;16.50;102211.00;;;;5088600;28;20219;-67
2023/10/15 16:41:48;;;;;;;0.40;0.40;;;12.60;99.90;15.80;102206.00;;;;5118840;27;20199;-65
2023/10/15 16:44:49;;;;;;;0.50;0.50;;;12.30;99.90;16.30;102197.00;;;;5102379;28;20180;-68
2023/10/15 16:48:02;;;;;;;0.37;0.37;;;12.30;99.90;15.60;102187.00;;;;5085014;28;20207;-67
2023/10/15 16:51:18;;;;;;;0.40;0.40;;;12.10;99.90;15.60;102203.00;;;;5100150;28;20284;-67
2023/10/15 16:54:07;;;;;;;0.30;0.30;;;12.10;99.90;15.20;102191.00;;;;5085302;28;20202;-68
2023/10/15 16:57:18;;;;;;;0.30;0.30;;;11.70;99.90;14.90;102154.00;;;;5103377;28;20184;-67
2023/10/15 17:00:37;;;;;;;0.30;0.30;;;11.60;99.90;15.80;102206.00;;;;5102400;28;20182;-67
2023/10/15 17:03:21;;;;;;;0.40;0.40;;;11.70;99.90;16.10;102212.00;;;;5101203;28;20218;-66
2023/10/15 17:06:24;;;;;;;0.40;0.40;;;12.00;99.90;15.60;102196.00;;;;5102112;28;20219;-65
2023/10/15 17:09:42;;;;;;;0.50;0.50;;;11.90;99.90;16.00;102188.00;;;;5096560;28;20184;-66
2023/10/15 17:12:43;;;;;;;0.50;0.50;;;11.90;99.90;15.90;102225.00;;;;5110784;28;20270;-66
2023/10/15 17:15:37;;;;;;;0.53;0.53;;;11.90;99.90;16.10;102224.00;;;;5102218;28;20660;-66
2023/10/15 17:18:10;;;;;;;0.50;0.50;;;12.00;99.90;15.90;102225.00;;;;5102687;28;20184;-66
2023/10/15 17:21:11;;;;;;;0.50;0.50;;;12.00;99.90;16.00;102229.00;;;;5095718;28;20205;-66
2023/10/15 17:23:46;;;;;;;1.33;1.33;;;12.10;99.90;15.40;102231.00;;;;5103380;28;20280;-66
2023/10/15 17:26:35;;;;;;;0.50;0.50;;;11.80;99.90;14.80;102199.00;;;;5104134;28;20523;-66
2023/10/15 17:29:21;;;;;;;0.50;0.50;;;11.30;99.90;14.60;102222.00;;;;5117779;27;20268;-66
2023/10/15 17:32:16;;;;;;;0.50;0.50;;;11.00;99.90;15.10;102220.00;;;;5100755;28;20201;-67
2023/10/15 17:35:09;;;;;;;0.50;0.50;;;11.00;99.90;15.50;102238.00;;;;5068495;28;20257;-67
2023/10/15 17:37:55;;;;;;;0.50;0.50;;;11.20;99.90;15.30;102235.00;;;;5085111;28;20194;-67
2023/10/15 17:40:21;;;;;;;0.50;0.50;;;11.50;99.90;15.60;102238.00;;;;5107573;28;20241;-67
2023/10/15 17:43:07;;;;;;;0.50;0.50;;;11.60;99.90;15.80;102256.00;;;;5096457;28;20668;-68
2023/10/15 17:45:46;;;;;;;8.57;1.43;;;11.80;99.90;15.50;102252.00;;;;5063807;28;20194;-68
2023/10/15 17:48:49;;;;;;;0.70;0.70;;;11.90;99.90;15.90;102253.00;;;;5093475;28;20715;-67
2023/10/15 17:51:25;;;;;;;0.50;0.50;;;12.00;99.90;16.30;102254.00;;;;5107295;28;20188;-67
2023/10/15 17:54:34;;;;;;;0.40;0.40;;;12.10;99.90;14.90;102245.00;;;;5103383;28;20283;-67
2023/10/15 17:57:35;;;;;;;0.50;0.50;;;11.80;99.90;15.60;102245.00;;;;5101093;28;20203;-67
2023/10/15 18:00:36;;;;;;;0.50;0.50;;;11.60;99.90;16.00;102238.00;;;;5091392;28;20285;-67
2023/10/15 18:03:31;;;;;;;1.70;1.57;;;11.80;99.90;14.20;102245.00;;;;5095218;28;20191;-67
2023/10/15 18:06:37;;;;;;;0.43;0.43;;;11.30;99.90;13.80;102239.00;;;;5095509;28;20270;-67
2023/10/15 18:09:26;;;;;;;0.80;0.80;;;10.80;99.90;13.70;102240.00;;;;5103326;28;20189;-67
2023/10/15 18:12:42;;;;;;;0.40;0.40;;;10.60;99.90;13.80;102243.00;;;;5039280;28;20214;-67
2023/10/15 18:15:40;;;;;;;0.60;0.60;;;10.50;99.90;13.60;102204.00;;;;5035050;28;20637;-67
2023/10/15 18:18:32;;;;;;;0.40;0.40;;;10.50;99.90;14.80;102249.00;;;;5096593;28;20182;-67
2023/10/15 18:21:28;;;;;;;1.73;1.63;;;10.60;99.90;14.10;102255.00;;;;5120848;27;20248;-67
2023/10/15 18:24:27;;;;;;;0.40;0.40;;;10.90;99.90;13.30;102220.00;;;;5091676;28;20432;-67
2023/10/15 18:27:39;;;;;;;0.30;0.30;;;10.40;99.90;14.30;102248.00;;;;5095390;28;20189;-67
2023/10/15 18:30:26;;;;;;;0.40;0.40;;;10.60;99.90;14.40;102258.00;;;;5099867;28;20195;-67
2023/10/15 18:33:30;;;;;;;0.47;0.47;;;10.80;99.90;15.00;102266.00;;;;5087380;28;20222;-68
2023/10/15 18:36:34;;;;;;;1.40;1.40;;;11.00;99.90;13.20;102229.00;;;;5120738;28;20198;-68
2023/10/15 18:39:34;;;;;;;0.50;0.50;;;10.50;99.90;14.20;102242.00;;;;5091667;28;20196;-68
2023/10/15 18:42:39;;;;;;;0.50;0.50;;;10.40;99.90;14.10;102246.00;;;;5097586;28;20215;-66
2023/10/15 18:45:36;;;;;;;0.40;0.40;;;10.50;99.90;14.40;102253.00;;;;5092174;28;20181;-66
2023/10/15 18:49:07;;;;;;;0.50;0.50;;;10.50;99.90;14.60;102256.00;;;;5099988;28;20178;-66
2023/10/15 18:52:13;;;;;;;0.50;0.50;;;10.80;99.90;14.60;102215.00;;;;5086026;28;20226;-66
2023/10/15 18:55:17;;;;;;;0.60;0.60;;;10.70;99.90;14.40;102252.00;;;;5111410;28;20530;-67
2023/10/15 18:58:35;;;;;;;1.57;1.53;;;10.60;99.90;14.20;102252.00;;;;5105891;28;20190;-67
2023/10/15 19:01:21;;;;;;;0.70;0.70;;;10.40;99.90;14.10;102210.00;;;;5111731;28;20218;-67
2023/10/15 19:04:29;;;;;;;0.60;0.60;;;10.30;99.90;14.20;102238.00;;;;5105911;28;20217;-67
2023/10/15 19:07:37;;;;;;;0.60;0.60;;;10.30;99.90;14.20;102240.00;;;;5088760;28;20220;-67
2023/10/15 19:10:28;;;;;;;0.60;0.60;;;10.30;99.90;14.20;102248.00;;;;5106118;28;20182;-66
2023/10/15 19:13:51;;;;;;;0.60;0.60;;;10.40;99.90;14.50;102246.00;;;;5103095;28;20216;-67
2023/10/15 19:17:09;;;;;;;0.60;0.60;;;10.40;99.90;14.10;102259.00;;;;5102891;28;20223;-67
2023/10/15 19:20:10;;;;;;;1.80;1.75;;;10.80;99.90;14.40;102253.00;;;;5101834;28;20406;-67
2023/10/15 19:23:31;;;;;;;0.50;0.50;;;10.70;99.90;13.40;102246.00;;;;5105129;28;20231;-67
2023/10/15 19:26:47;;;;;;;0.40;0.40;;;10.40;99.90;13.10;102244.00;;;;5102323;28;20183;-67
2023/10/15 19:29:16;;;;;;;0.50;0.50;;;9.90;99.90;13.70;102247.00;;;;5097321;28;20201;-67
2023/10/15 19:32:24;;;;;;;0.50;0.50;;;10.00;99.90;14.20;102257.00;;;;5086715;28;20209;-67
2023/10/15 19:35:17;;;;;;;0.60;0.60;;;10.20;99.90;14.30;102261.00;;;;5103232;28;20196;-67
2023/10/15 19:38:24;;;;;;;0.60;0.60;;;10.30;99.90;13.20;102264.00;;;;5085202;28;20184;-67
2023/10/15 19:41:35;;;;;;;0.67;0.67;;;10.30;99.90;12.20;102247.00;;;;5103526;28;20185;-66
2023/10/15 19:44:50;;;;;;;0.50;0.50;;;9.70;99.90;12.70;102256.00;;;;5104392;27;20192;-67
2023/10/15 19:47:23;;;;;;;0.50;0.50;;;9.60;99.90;12.70;102240.00;;;;5086686;28;20280;-67
2023/10/15 19:50:39;;;;;;;0.50;0.50;;;9.50;99.90;13.30;102244.00;;;;5104950;27;20642;-67
2023/10/15 19:53:14;;;;;;;0.50;0.50;;;9.60;99.90;13.60;102222.00;;;;5104003;28;20260;-67
2023/10/15 19:55:59;;;;;;;1.23;1.10;;;9.80;99.90;13.10;102218.00;;;;5103536;28;20276;-67
2023/10/15 19:58:31;;;;;;;2.20;2.10;;;10.00;99.90;12.20;102246.00;;;;5101902;28;20733;-66
2023/10/15 20:01:15;;;;;;;0.40;0.40;;;9.60;99.90;11.80;102241.00;;;;5086372;28;20191;-66
2023/10/15 20:04:26;;;;;;;1.23;1.03;;;9.40;99.90;12.50;102242.00;;;;5103891;28;20693;-67